| time (UTC) | temp C | wind direction | speed KPH | gust KPH | rain 1hr cm | rain 24hr cm | rain mn cm | humidity % | barometer mb |
| 20260509074548 | 21 | 158 | 3.2 | 6.4 | 0.00 | 0.03 | 0.00 | 86 | 1009.0 |
| 20260509073608 | 21 | 203 | 1.6 | 6.4 | 0.00 | 0.03 | 0.00 | 85 | 1009.4 |
| 20260509072548 | 21 | 225 | 1.6 | 6.4 | 0.00 | 0.03 | 0.00 | 86 | 1009.7 |
| 20260509071548 | 21 | 248 | 3.2 | 6.4 | 0.00 | 0.03 | 0.00 | 85 | 1009.8 |
| 20260509070548 | 21 | 225 | 3.2 | 8.0 | 0.00 | 0.03 | 0.00 | 85 | 1009.7 |
| 20260509065548 | 21 | 248 | 3.2 | 9.7 | 0.00 | 0.03 | 0.00 | 85 | 1009.5 |
| 20260509064548 | 21 | 225 | 3.2 | 8.0 | 0.00 | 0.03 | 0.00 | 85 | 1009.2 |
| 20260509063628 | 21 | 225 | 4.8 | 8.0 | 0.00 | 0.03 | 0.00 | 85 | 1009.2 |
| 20260509062608 | 21 | 203 | 3.2 | 6.4 | 0.00 | 0.03 | 0.00 | 85 | 1009.4 |
| 20260509061548 | 21 | 180 | 3.2 | 6.4 | 0.00 | 0.03 | 0.00 | 85 | 1009.3 |
| 20260509060548 | 21 | 203 | 1.6 | 4.8 | 0.00 | 0.03 | 0.00 | 84 | 1009.8 |
| 20260509055548 | 21 | 0.0 | 1.6 | 0.00 | 0.03 | 0.00 | 83 | 1009.8 | |
| 20260509054608 | 22 | 203 | 1.6 | 4.8 | 0.00 | 0.03 | 0.00 | 83 | 1010.2 |
| 20260509053608 | 22 | 0.0 | 0.0 | 0.00 | 0.03 | 0.00 | 82 | 1010.0 | |
| 20260509052548 | 22 | 0.0 | 3.2 | 0.00 | 0.03 | 0.00 | 82 | 1010.7 | |
| 20260509051548 | 22 | 203 | 3.2 | 4.8 | 0.00 | 0.03 | 0.00 | 82 | 1010.3 |
| 20260509050548 | 22 | 203 | 3.2 | 6.4 | 0.00 | 0.03 | 0.00 | 82 | 1009.3 |
| 20260509045549 | 22 | 225 | 1.6 | 6.4 | 0.00 | 0.03 | 0.03 | 81 | 1009.3 |
| 20260509044549 | 22 | 203 | 4.8 | 16.1 | 0.00 | 0.03 | 0.03 | 80 | 1008.7 |
| 20260509043549 | 22 | 180 | 3.2 | 8.0 | 0.00 | 0.03 | 0.03 | 80 | 1009.2 |
| 20260509042549 | 22 | 158 | 4.8 | 11.3 | 0.00 | 0.03 | 0.03 | 79 | 1008.9 |
| 20260509041549 | 22 | 113 | 3.2 | 9.7 | 0.00 | 0.03 | 0.03 | 78 | 1009.4 |
| 20260509040609 | 22 | 113 | 4.8 | 9.7 | 0.00 | 0.03 | 0.03 | 78 | 1009.5 |
| 20260509035549 | 22 | 0.0 | 0.0 | 0.00 | 0.03 | 0.03 | 78 | 1010.1 | |
| 20260509034609 | 22 | 0.0 | 0.0 | 0.00 | 0.03 | 0.03 | 78 | 1009.9 | |
| 20260509033549 | 22 | 113 | 1.6 | 4.8 | 0.00 | 0.03 | 0.03 | 78 | 1009.6 |
| 20260509032549 | 22 | 0.0 | 1.6 | 0.00 | 0.03 | 0.03 | 78 | 1009.3 | |
| 20260509031549 | 22 | 113 | 3.2 | 9.7 | 0.00 | 0.03 | 0.03 | 78 | 1009.2 |
| 20260509030549 | 22 | 113 | 4.8 | 11.3 | 0.00 | 0.03 | 0.03 | 78 | 1009.3 |
| 20260509025549 | 22 | 135 | 3.2 | 8.0 | 0.00 | 0.03 | 0.03 | 78 | 1008.9 |
| 20260509024549 | 22 | 135 | 4.8 | 11.3 | 0.00 | 0.03 | 0.03 | 78 | 1008.7 |
| 20260509023549 | 22 | 135 | 1.6 | 4.8 | 0.00 | 0.03 | 0.03 | 78 | 1008.5 |
| 20260509022549 | 22 | 113 | 3.2 | 9.7 | 0.00 | 0.03 | 0.03 | 77 | 1008.2 |
| 20260509021549 | 22 | 135 | 4.8 | 8.0 | 0.00 | 0.03 | 0.03 | 77 | 1008.1 |
| 20260509020549 | 22 | 135 | 4.8 | 11.3 | 0.00 | 0.03 | 0.03 | 77 | 1008.2 |
| 20260509015549 | 22 | 180 | 4.8 | 12.9 | 0.00 | 0.03 | 0.03 | 76 | 1008.0 |
| 20260509014609 | 22 | 158 | 4.8 | 8.0 | 0.00 | 0.03 | 0.03 | 76 | 1008.1 |
| 20260509013549 | 22 | 180 | 3.2 | 11.3 | 0.00 | 0.03 | 0.03 | 76 | 1008.1 |
| 20260509012609 | 22 | 158 | 3.2 | 6.4 | 0.00 | 0.03 | 0.03 | 76 | 1007.9 |
| 20260509011609 | 22 | 158 | 4.8 | 11.3 | 0.00 | 0.03 | 0.03 | 75 | 1007.9 |
| 20260509010549 | 22 | 135 | 6.4 | 14.5 | 0.00 | 0.03 | 0.03 | 75 | 1007.7 |
| 20260509005549 | 22 | 158 | 3.2 | 8.0 | 0.00 | 0.03 | 0.03 | 75 | 1007.5 |
| 20260509004629 | 23 | 158 | 3.2 | 11.3 | 0.00 | 0.03 | 0.03 | 75 | 1007.5 |
| 20260509003549 | 23 | 158 | 6.4 | 14.5 | 0.00 | 0.03 | 0.03 | 74 | 1007.3 |
| 20260509002549 | 23 | 158 | 6.4 | 14.5 | 0.00 | 0.03 | 0.03 | 73 | 1007.3 |
| 20260509001549 | 23 | 180 | 4.8 | 12.9 | 0.00 | 0.03 | 0.03 | 73 | 1007.4 |
| 20260509000549 | 23 | 135 | 4.8 | 11.3 | 0.00 | 0.03 | 0.03 | 73 | 1007.5 |
| 20260508235549 | 23 | 135 | 4.8 | 12.9 | 0.00 | 0.03 | 0.03 | 72 | 1007.6 |
| 20260508234549 | 23 | 113 | 4.8 | 9.7 | 0.00 | 0.03 | 0.03 | 72 | 1007.7 |
| 20260508233549 | 23 | 158 | 6.4 | 12.9 | 0.00 | 0.03 | 0.03 | 71 | 1007.8 |
| 20260508232549 | 23 | 113 | 4.8 | 11.3 | 0.00 | 0.03 | 0.03 | 71 | 1007.9 |
| 20260508231609 | 23 | 135 | 6.4 | 12.9 | 0.00 | 0.03 | 0.03 | 70 | 1008.0 |
| 20260508230549 | 24 | 158 | 8.0 | 16.1 | 0.00 | 0.03 | 0.03 | 70 | 1007.9 |
| 20260508225609 | 23 | 180 | 6.4 | 17.7 | 0.00 | 0.03 | 0.03 | 70 | 1008.1 |
| 20260508224549 | 23 | 180 | 4.8 | 16.1 | 0.00 | 0.03 | 0.03 | 70 | 1008.0 |
| 20260508223549 | 23 | 158 | 8.0 | 14.5 | 0.00 | 0.03 | 0.03 | 69 | 1007.9 |
| 20260508222549 | 24 | 203 | 6.4 | 16.1 | 0.00 | 0.03 | 0.03 | 69 | 1007.9 |
| 20260508221549 | 24 | 180 | 8.0 | 14.5 | 0.00 | 0.03 | 0.03 | 69 | 1007.9 |
| 20260508220549 | 25 | 158 | 8.0 | 14.5 | 0.00 | 0.03 | 0.03 | 67 | 1007.8 |
| 20260508215609 | 25 | 180 | 6.4 | 12.9 | 0.00 | 0.03 | 0.03 | 70 | 1007.8 |
| 20260508214549 | 25 | 158 | 4.8 | 11.3 | 0.00 | 0.03 | 0.03 | 68 | 1007.9 |
| 20260508213549 | 24 | 180 | 6.4 | 16.1 | 0.00 | 0.03 | 0.03 | 70 | 1007.8 |
| 20260508212549 | 24 | 158 | 6.4 | 12.9 | 0.00 | 0.03 | 0.03 | 69 | 1007.7 |
| 20260508211549 | 24 | 135 | 6.4 | 14.5 | 0.00 | 0.03 | 0.03 | 71 | 1008.1 |
| 20260508210549 | 22 | 135 | 3.2 | 11.3 | 0.00 | 0.03 | 0.03 | 74 | 1008.6 |
| 20260508205549 | 22 | 203 | 3.2 | 9.7 | 0.00 | 0.03 | 0.03 | 75 | 1009.1 |
| 20260508204549 | 23 | 203 | 3.2 | 9.7 | 0.00 | 0.03 | 0.03 | 72 | 1009.4 |
| 20260508203549 | 23 | 225 | 6.4 | 16.1 | 0.00 | 0.03 | 0.03 | 69 | 1009.8 |
| 20260508202549 | 23 | 203 | 3.2 | 8.0 | 0.00 | 0.03 | 0.03 | 69 | 1009.9 |
| 20260508201549 | 23 | 203 | 4.8 | 11.3 | 0.00 | 0.03 | 0.03 | 68 | 1009.9 |
| 20260508200549 | 24 | 225 | 3.2 | 9.7 | 0.00 | 0.03 | 0.03 | 68 | 1009.9 |
| 20260508195549 | 24 | 158 | 6.4 | 12.9 | 0.00 | 0.03 | 0.03 | 67 | 1009.9 |
| 20260508194548 | 25 | 180 | 6.4 | 11.3 | 0.00 | 0.03 | 0.03 | 66 | 1009.9 |
| 20260508193549 | 25 | 203 | 6.4 | 12.9 | 0.00 | 0.03 | 0.03 | 66 | 1009.9 |
| 20260508192548 | 25 | 158 | 6.4 | 12.9 | 0.00 | 0.03 | 0.03 | 64 | 1010.0 |
| 20260508191548 | 25 | 158 | 8.0 | 16.1 | 0.00 | 0.03 | 0.03 | 65 | 1010.0 |
| 20260508190548 | 25 | 203 | 6.4 | 14.5 | 0.00 | 0.03 | 0.03 | 65 | 1010.1 |
| 20260508185549 | 25 | 180 | 4.8 | 14.5 | 0.00 | 0.03 | 0.03 | 62 | 1010.3 |
| 20260508184548 | 26 | 135 | 6.4 | 14.5 | 0.00 | 0.03 | 0.03 | 64 | 1010.2 |
| 20260508183549 | 25 | 203 | 4.8 | 14.5 | 0.00 | 0.03 | 0.03 | 63 | 1010.2 |
| 20260508182549 | 25 | 203 | 4.8 | 12.9 | 0.00 | 0.03 | 0.03 | 62 | 1010.6 |
| 20260508181548 | 25 | 158 | 4.8 | 14.5 | 0.00 | 0.03 | 0.03 | 63 | 1010.8 |
| 20260508180609 | 25 | 248 | 3.2 | 8.0 | 0.00 | 0.03 | 0.03 | 63 | 1010.9 |
| 20260508175608 | 25 | 158 | 4.8 | 12.9 | 0.00 | 0.03 | 0.03 | 62 | 1011.1 |
| 20260508174549 | 25 | 113 | 6.4 | 16.1 | 0.00 | 0.03 | 0.03 | 64 | 1011.4 |
| 20260508173549 | 24 | 158 | 4.8 | 14.5 | 0.00 | 0.03 | 0.03 | 64 | 1011.3 |
| 20260508172549 | 24 | 113 | 6.4 | 16.1 | 0.00 | 0.03 | 0.03 | 64 | 1011.4 |
| 20260508171608 | 23 | 180 | 4.8 | 9.7 | 0.00 | 0.03 | 0.03 | 63 | 1011.7 |
| 20260508170549 | 22 | 203 | 6.4 | 16.1 | 0.00 | 0.03 | 0.03 | 65 | 1011.9 |
| 20260508165549 | 22 | 158 | 6.4 | 16.1 | 0.00 | 0.03 | 0.03 | 65 | 1012.3 |
| 20260508164549 | 22 | 158 | 4.8 | 16.1 | 0.00 | 0.03 | 0.03 | 66 | 1012.5 |
| 20260508163548 | 22 | 180 | 6.4 | 19.3 | 0.00 | 0.03 | 0.03 | 65 | 1012.7 |
| 20260508162548 | 22 | 203 | 4.8 | 19.3 | 0.00 | 0.03 | 0.03 | 67 | 1012.8 |
| 20260508161548 | 22 | 180 | 6.4 | 14.5 | 0.00 | 0.03 | 0.03 | 66 | 1013.0 |
| 20260508160549 | 22 | 135 | 6.4 | 19.3 | 0.00 | 0.03 | 0.03 | 67 | 1013.0 |
| 20260508155548 | 21 | 135 | 8.0 | 16.1 | 0.00 | 0.03 | 0.03 | 67 | 1013.0 |
| 20260508154548 | 21 | 135 | 8.0 | 16.1 | 0.00 | 0.03 | 0.03 | 67 | 1013.3 |
| 20260508153608 | 20 | 158 | 6.4 | 14.5 | 0.00 | 0.03 | 0.03 | 69 | 1013.4 |
| 20260508152548 | 20 | 135 | 6.4 | 12.9 | 0.00 | 0.03 | 0.03 | 70 | 1013.4 |
| 20260508151548 | 20 | 135 | 6.4 | 12.9 | 0.00 | 0.03 | 0.03 | 70 | 1013.5 |
| 20260508150548 | 19 | 135 | 4.8 | 11.3 | 0.00 | 0.03 | 0.03 | 70 | 1013.5 |
| 20260508145548 | 19 | 113 | 8.0 | 12.9 | 0.00 | 0.03 | 0.03 | 70 | 1013.3 |
| 20260508144548 | 20 | 135 | 8.0 | 14.5 | 0.00 | 0.03 | 0.03 | 69 | 1013.3 |
| 20260508143548 | 19 | 180 | 6.4 | 14.5 | 0.00 | 0.03 | 0.03 | 71 | 1013.4 |
| 20260508142609 | 19 | 135 | 6.4 | 16.1 | 0.00 | 0.03 | 0.03 | 71 | 1013.8 |
| 20260508141548 | 20 | 158 | 6.4 | 17.7 | 0.00 | 0.03 | 0.03 | 71 | 1013.8 |
| 20260508140629 | 19 | 135 | 4.8 | 11.3 | 0.00 | 0.03 | 0.03 | 73 | 1013.8 |
| 20260508135548 | 18 | 158 | 4.8 | 11.3 | 0.00 | 0.03 | 0.03 | 77 | 1013.8 |
| 20260508134549 | 18 | 113 | 4.8 | 9.7 | 0.00 | 0.03 | 0.03 | 79 | 1013.8 |
| 20260508133548 | 17 | 113 | 3.2 | 9.7 | 0.00 | 0.03 | 0.03 | 80 | 1013.7 |
| 20260508132548 | 17 | 113 | 4.8 | 11.3 | 0.00 | 0.03 | 0.03 | 80 | 1013.7 |
| 20260508131548 | 17 | 135 | 3.2 | 8.0 | 0.00 | 0.03 | 0.03 | 81 | 1013.8 |
| 20260508130629 | 17 | 113 | 4.8 | 8.0 | 0.00 | 0.03 | 0.03 | 81 | 1013.9 |
| 20260508125548 | 17 | 135 | 1.6 | 4.8 | 0.00 | 0.03 | 0.03 | 83 | 1013.9 |
| 20260508124548 | 16 | 135 | 3.2 | 4.8 | 0.00 | 0.03 | 0.03 | 84 | 1013.7 |
| 20260508123548 | 16 | 0.0 | 0.0 | 0.00 | 0.03 | 0.03 | 85 | 1014.3 | |
| 20260508122548 | 16 | 0.0 | 0.0 | 0.00 | 0.03 | 0.03 | 85 | 1013.9 | |
| 20260508121549 | 16 | 0.0 | 0.0 | 0.00 | 0.03 | 0.03 | 85 | 1013.9 | |
| 20260508120548 | 16 | 0.0 | 1.6 | 0.00 | 0.03 | 0.03 | 85 | 1013.8 | |
| 20260508115548 | 16 | 0.0 | 1.6 | 0.00 | 0.03 | 0.03 | 85 | 1014.1 | |
| 20260508114548 | 16 | 135 | 1.6 | 4.8 | 0.00 | 0.03 | 0.03 | 86 | 1013.9 |
| 20260508113548 | 16 | 135 | 1.6 | 4.8 | 0.00 | 0.03 | 0.03 | 86 | 1014.0 |
| 20260508112548 | 16 | 135 | 4.8 | 8.0 | 0.00 | 0.03 | 0.03 | 86 | 1013.9 |
| 20260508111608 | 16 | 113 | 4.8 | 8.0 | 0.00 | 0.03 | 0.03 | 86 | 1013.9 |
| 20260508110548 | 16 | 0.0 | 1.6 | 0.00 | 0.03 | 0.03 | 86 | 1014.4 | |
| 20260508105548 | 16 | 113 | 1.6 | 3.2 | 0.00 | 0.03 | 0.03 | 87 | 1014.7 |
| 20260508104548 | 16 | 0.0 | 0.0 | 0.00 | 0.03 | 0.03 | 88 | 1014.0 | |
| 20260508103548 | 16 | 0.0 | 0.0 | 0.00 | 0.03 | 0.03 | 88 | 1013.5 | |
| 20260508102548 | 16 | 0.0 | 0.0 | 0.00 | 0.03 | 0.03 | 87 | 1013.1 | |
| 20260508101608 | 16 | 0.0 | 0.0 | 0.00 | 0.03 | 0.03 | 87 | 1013.2 | |
| 20260508100548 | 16 | 135 | 1.6 | 4.8 | 0.00 | 0.03 | 0.03 | 87 | 1013.0 |
| 20260508095548 | 16 | 135 | 1.6 | 3.2 | 0.00 | 0.03 | 0.03 | 87 | 1013.2 |
| 20260508094548 | 16 | 135 | 1.6 | 3.2 | 0.00 | 0.03 | 0.03 | 87 | 1013.1 |
| 20260508093548 | 16 | 0.0 | 0.0 | 0.00 | 0.03 | 0.03 | 87 | 1013.4 | |
| 20260508092548 | 16 | 0.0 | 0.0 | 0.00 | 0.03 | 0.03 | 87 | 1013.5 | |
| 20260508091549 | 16 | 0.0 | 0.0 | 0.00 | 0.03 | 0.03 | 87 | 1013.3 | |
| 20260508090548 | 16 | 0.0 | 1.6 | 0.00 | 0.03 | 0.03 | 86 | 1013.4 | |
| 20260508085548 | 16 | 0.0 | 3.2 | 0.03 | 0.03 | 0.03 | 86 | 1013.6 | |
| 20260508084608 | 16 | 135 | 1.6 | 3.2 | 0.03 | 0.03 | 0.03 | 86 | 1013.4 |
| 20260508083548 | 16 | 113 | 6.4 | 12.9 | 0.03 | 0.03 | 0.03 | 87 | 1013.1 |
| 20260508082548 | 16 | 0.0 | 0.0 | 0.03 | 0.03 | 0.03 | 86 | 1014.3 | |
| 20260508081548 | 16 | 0.0 | 0.0 | 0.03 | 0.03 | 0.03 | 85 | 1014.4 | |
| 20260508080608 | 16 | 0.0 | 0.0 | 0.03 | 0.03 | 0.03 | 84 | 1014.6 | |
| 20260508075548 | 16 | 0.0 | 0.0 | 0.00 | 0.00 | 0.00 | 81 | 1015.0 |